Servet Ana — TCMF7 — position and weather

sailwx.info

Track history (hours):
 
Tides and Currents Weather Stations Pressure Air Temp Water Temp Dewpoint Dewpoint Depression Visibility Wind Speed Wind Dir Waves Ship Positions

Servet Ana

Last reported at 2015-Mar-27 03:21 UTC. Time now 2015-Mar-27 03:37 UTC.
Position N 55°41' E 015°37'.

; draft 10 m.

Type: Ship. MMSI: 271042643.

Date/timePositionNaut miles runAvg speedWind from/ knotsBaromVisibWave heightAir tempDewpointWater temp
2015-Mar-27 03:21N 55°41' E 015°37'  
2015-Mar-18 13:31N 56°02' E 018°01'1414.3
2015-Mar-18 12:33N 55°55' E 017°40'1414.4
2015-Mar-18 11:33N 55°52' E 017°15'5014.4
2015-Mar-18 08:07N 55°40' E 015°49'814.2
2015-Mar-18 07:34N 55°39' E 015°36'1413.9
2015-Mar-18 06:33N 55°34' E 015°12'1414.1
2015-Mar-18 05:33N 55°27' E 014°51'1414.0
2015-Mar-18 04:33N 55°18' E 014°32'1413.9
2015-Mar-18 03:33N 55°09' E 014°13'1413.7
2015-Mar-18 02:32N 55°11' E 013°49'1313.7
2015-Mar-18 01:33N 55°12' E 013°26'1413.6
2015-Mar-18 00:33N 55°14' E 013°02'1313.3
2015-Mar-17 23:33N 55°17' E 012°40'1312.5
2015-Mar-17 22:33N 55°30' E 012°41'1111.4
2015-Mar-17 21:33N 55°41' E 012°41'1312.7
2015-Mar-17 20:33N 55°54' E 012°39'1111.4
2015-Mar-17 19:34N 56°05' E 012°35'1313.0
2015-Mar-17 18:33N 56°13' E 012°16'1312.9
2015-Mar-17 17:34N 56°23' E 012°02'1414.0
2015-Mar-17 16:34N 56°37' E 011°56'1413.5
2015-Mar-17 15:33N 56°50' E 011°49'1413.9
2015-Mar-17 14:33N 57°03' E 011°41'1413.8
2015-Mar-17 13:33N 57°15' E 011°32'1313.2
2015-Mar-17 12:33N 57°27' E 011°21'1313.3
2015-Mar-17 11:34N 57°34' E 011°00'1312.5
2015-Mar-17 10:33N 57°41' E 010°40'0 0.1
2015-Mar-17 09:04N 57°41' E 010°40'0 0.0
2015-Mar-17 08:07N 57°41' E 010°40'0 0.0
2015-Mar-17 07:10N 57°41' E 010°40'0 0.0
2015-Mar-17 06:31N 57°41' E 010°40'0 0.0
2015-Mar-17 05:32N 57°41' E 010°40'0 0.1
2015-Mar-17 04:22N 57°41' E 010°40'0 0.0
2015-Mar-17 03:28N 57°41' E 010°40'  
Track history (hours):
 
Tides and Currents Weather Stations Pressure Air Temp Water Temp Dewpoint Dewpoint Depression Visibility Wind Speed Wind Dir Waves Ship Positions

Servet Ana

Last reported at 2015-Mar-27 03:21 UTC. Time now 2015-Mar-27 03:37 UTC.
Position N 55°41' E 015°37'.

; draft 10 m.

Type: Ship. MMSI: 271042643.

Date/timePositionNaut miles runAvg speedWind from/ knotsBaromVisibWave heightAir tempDewpointWater temp
2015-Mar-27 03:21N 55°41' E 015°37'  
2015-Mar-18 13:31N 56°02' E 018°01'1414.3
2015-Mar-18 12:33N 55°55' E 017°40'1414.4
2015-Mar-18 11:33N 55°52' E 017°15'5014.4
2015-Mar-18 08:07N 55°40' E 015°49'814.2
2015-Mar-18 07:34N 55°39' E 015°36'1413.9
2015-Mar-18 06:33N 55°34' E 015°12'1414.1
2015-Mar-18 05:33N 55°27' E 014°51'1414.0
2015-Mar-18 04:33N 55°18' E 014°32'1413.9
2015-Mar-18 03:33N 55°09' E 014°13'1413.7
2015-Mar-18 02:32N 55°11' E 013°49'1313.7
2015-Mar-18 01:33N 55°12' E 013°26'1413.6
2015-Mar-18 00:33N 55°14' E 013°02'1313.3
2015-Mar-17 23:33N 55°17' E 012°40'1312.5
2015-Mar-17 22:33N 55°30' E 012°41'1111.4
2015-Mar-17 21:33N 55°41' E 012°41'1312.7
2015-Mar-17 20:33N 55°54' E 012°39'1111.4
2015-Mar-17 19:34N 56°05' E 012°35'1313.0
2015-Mar-17 18:33N 56°13' E 012°16'1312.9
2015-Mar-17 17:34N 56°23' E 012°02'1414.0
2015-Mar-17 16:34N 56°37' E 011°56'1413.5
2015-Mar-17 15:33N 56°50' E 011°49'1413.9
2015-Mar-17 14:33N 57°03' E 011°41'1413.8
2015-Mar-17 13:33N 57°15' E 011°32'1313.2
2015-Mar-17 12:33N 57°27' E 011°21'1313.3
2015-Mar-17 11:34N 57°34' E 011°00'1312.5
2015-Mar-17 10:33N 57°41' E 010°40'0 0.1
2015-Mar-17 09:04N 57°41' E 010°40'0 0.0
2015-Mar-17 08:07N 57°41' E 010°40'0 0.0
2015-Mar-17 07:10N 57°41' E 010°40'0 0.0
2015-Mar-17 06:31N 57°41' E 010°40'0 0.0
2015-Mar-17 05:32N 57°41' E 010°40'0 0.1
2015-Mar-17 04:22N 57°41' E 010°40'0 0.0
2015-Mar-17 03:28N 57°41' E 010°40'  

Dump ship's entire track history